sensor_id;sensor_type;location;lat;lon;timestamp;P1;P2;P0
75960;PMS7003;64644;48.914;2.254;2024-02-26T00:01:22;9.75;9.75;7.00
75960;PMS7003;64644;48.914;2.254;2024-02-26T00:03:48;5.25;5.25;5.00
75960;PMS7003;64644;48.914;2.254;2024-02-26T00:06:13;10.25;8.50;5.25
75960;PMS7003;64644;48.914;2.254;2024-02-26T00:08:38;9.50;8.75;6.00
75960;PMS7003;64644;48.914;2.254;2024-02-26T00:11:04;8.25;8.25;6.00
75960;PMS7003;64644;48.914;2.254;2024-02-26T00:13:29;12.50;10.00;7.50
75960;PMS7003;64644;48.914;2.254;2024-02-26T00:15:54;8.75;8.75;5.75
75960;PMS7003;64644;48.914;2.254;2024-02-26T00:18:19;6.00;6.00;5.00
75960;PMS7003;64644;48.914;2.254;2024-02-26T00:20:45;12.75;11.50;7.00
75960;PMS7003;64644;48.914;2.254;2024-02-26T00:23:10;6.00;5.50;4.25
75960;PMS7003;64644;48.914;2.254;2024-02-26T00:25:35;8.00;8.00;4.75
75960;PMS7003;64644;48.914;2.254;2024-02-26T00:28:02;8.00;8.00;5.75
75960;PMS7003;64644;48.914;2.254;2024-02-26T00:30:29;8.50;8.00;6.00
75960;PMS7003;64644;48.914;2.254;2024-02-26T00:32:54;6.00;6.00;5.00
75960;PMS7003;64644;48.914;2.254;2024-02-26T00:35:19;5.75;5.50;4.25
75960;PMS7003;64644;48.914;2.254;2024-02-26T00:37:45;8.25;8.25;5.25
75960;PMS7003;64644;48.914;2.254;2024-02-26T00:40:11;8.00;8.00;5.00
75960;PMS7003;64644;48.914;2.254;2024-02-26T00:42:36;6.00;6.00;4.50
75960;PMS7003;64644;48.914;2.254;2024-02-26T00:45:02;9.25;9.00;5.50
75960;PMS7003;64644;48.914;2.254;2024-02-26T00:47:27;5.50;4.75;4.00
75960;PMS7003;64644;48.914;2.254;2024-02-26T00:49:53;6.25;5.25;4.25
75960;PMS7003;64644;48.914;2.254;2024-02-26T00:52:18;6.50;5.50;4.25
75960;PMS7003;64644;48.914;2.254;2024-02-26T00:54:44;4.75;4.75;4.50
75960;PMS7003;64644;48.914;2.254;2024-02-26T00:57:09;8.00;5.00;4.00
75960;PMS7003;64644;48.914;2.254;2024-02-26T00:59:35;3.00;3.00;2.00
75960;PMS7003;64644;48.914;2.254;2024-02-26T01:02:00;8.25;6.50;5.00
75960;PMS7003;64644;48.914;2.254;2024-02-26T01:04:27;9.00;7.00;4.25
75960;PMS7003;64644;48.914;2.254;2024-02-26T01:06:52;4.25;4.25;3.50
75960;PMS7003;64644;48.914;2.254;2024-02-26T01:09:18;5.75;4.75;4.50
75960;PMS7003;64644;48.914;2.254;2024-02-26T01:11:43;5.25;5.25;4.00
75960;PMS7003;64644;48.914;2.254;2024-02-26T01:14:09;5.00;5.00;3.50
75960;PMS7003;64644;48.914;2.254;2024-02-26T01:16:34;6.50;5.00;4.00
75960;PMS7003;64644;48.914;2.254;2024-02-26T01:19:00;7.00;7.00;5.75
75960;PMS7003;64644;48.914;2.254;2024-02-26T01:21:25;8.50;6.00;5.00
75960;PMS7003;64644;48.914;2.254;2024-02-26T01:23:54;5.50;5.50;4.50
75960;PMS7003;64644;48.914;2.254;2024-02-26T01:26:19;8.25;8.25;4.25
75960;PMS7003;64644;48.914;2.254;2024-02-26T01:28:46;8.00;7.00;5.00
75960;PMS7003;64644;48.914;2.254;2024-02-26T01:31:13;9.75;6.75;4.50
75960;PMS7003;64644;48.914;2.254;2024-02-26T01:33:38;5.50;5.50;5.00
75960;PMS7003;64644;48.914;2.254;2024-02-26T01:36:03;9.00;7.00;5.00
75960;PMS7003;64644;48.914;2.254;2024-02-26T01:38:29;6.00;6.00;5.00
75960;PMS7003;64644;48.914;2.254;2024-02-26T01:40:54;5.75;5.75;4.00
75960;PMS7003;64644;48.914;2.254;2024-02-26T01:43:19;8.00;5.25;4.75
75960;PMS7003;64644;48.914;2.254;2024-02-26T01:45:46;10.75;7.00;4.00
75960;PMS7003;64644;48.914;2.254;2024-02-26T01:48:11;8.00;6.00;5.00
75960;PMS7003;64644;48.914;2.254;2024-02-26T01:50:37;5.00;4.50;3.25
75960;PMS7003;64644;48.914;2.254;2024-02-26T01:53:03;5.00;5.00;4.00
75960;PMS7003;64644;48.914;2.254;2024-02-26T01:55:29;5.00;4.25;3.75
75960;PMS7003;64644;48.914;2.254;2024-02-26T01:57:55;5.00;5.00;4.00
75960;PMS7003;64644;48.914;2.254;2024-02-26T02:00:21;4.25;3.25;2.00
75960;PMS7003;64644;48.914;2.254;2024-02-26T02:02:47;7.50;3.75;2.75
75960;PMS7003;64644;48.914;2.254;2024-02-26T02:05:14;5.00;5.00;2.00
75960;PMS7003;64644;48.914;2.254;2024-02-26T02:07:42;5.50;5.00;4.00
75960;PMS7003;64644;48.914;2.254;2024-02-26T02:10:08;0.50;0.50;0.50
75960;PMS7003;64644;48.914;2.254;2024-02-26T02:12:34;4.00;4.00;2.00
75960;PMS7003;64644;48.914;2.254;2024-02-26T02:15:01;2.75;2.75;2.00
75960;PMS7003;64644;48.914;2.254;2024-02-26T02:17:26;4.50;4.50;2.75
75960;PMS7003;64644;48.914;2.254;2024-02-26T02:19:53;2.00;2.00;2.00
75960;PMS7003;64644;48.914;2.254;2024-02-26T02:22:18;4.00;4.00;2.00
75960;PMS7003;64644;48.914;2.254;2024-02-26T02:24:44;8.25;6.75;2.00
75960;PMS7003;64644;48.914;2.254;2024-02-26T02:27:10;2.00;2.00;1.50
75960;PMS7003;64644;48.914;2.254;2024-02-26T02:29:36;2.00;2.00;1.00
75960;PMS7003;64644;48.914;2.254;2024-02-26T02:32:02;4.75;4.75;4.00
75960;PMS7003;64644;48.914;2.254;2024-02-26T02:34:29;3.00;3.00;2.00
75960;PMS7003;64644;48.914;2.254;2024-02-26T02:36:56;4.00;3.75;1.75
75960;PMS7003;64644;48.914;2.254;2024-02-26T02:39:21;3.00;1.25;0.50
75960;PMS7003;64644;48.914;2.254;2024-02-26T02:41:47;1.50;1.00;0.50
75960;PMS7003;64644;48.914;2.254;2024-02-26T02:44:12;7.75;4.75;1.75
75960;PMS7003;64644;48.914;2.254;2024-02-26T02:46:38;1.25;1.25;1.00
75960;PMS7003;64644;48.914;2.254;2024-02-26T02:49:04;1.00;1.00;0.00
75960;PMS7003;64644;48.914;2.254;2024-02-26T02:51:32;3.25;1.75;0.00
75960;PMS7003;64644;48.914;2.254;2024-02-26T02:53:57;1.25;1.00;0.75
75960;PMS7003;64644;48.914;2.254;2024-02-26T02:56:23;1.25;1.00;0.50
75960;PMS7003;64644;48.914;2.254;2024-02-26T02:58:48;1.75;1.00;0.00
75960;PMS7003;64644;48.914;2.254;2024-02-26T03:01:13;1.25;1.25;0.00
75960;PMS7003;64644;48.914;2.254;2024-02-26T03:03:39;1.50;1.50;1.50
75960;PMS7003;64644;48.914;2.254;2024-02-26T03:06:04;1.75;0.25;0.00
75960;PMS7003;64644;48.914;2.254;2024-02-26T03:08:29;0.50;0.00;0.00
75960;PMS7003;64644;48.914;2.254;2024-02-26T03:10:55;0.00;0.00;0.00
75960;PMS7003;64644;48.914;2.254;2024-02-26T03:13:21;1.25;1.25;0.25
75960;PMS7003;64644;48.914;2.254;2024-02-26T03:15:46;0.00;0.00;0.00
75960;PMS7003;64644;48.914;2.254;2024-02-26T03:18:11;2.75;0.75;0.75
75960;PMS7003;64644;48.914;2.254;2024-02-26T03:20:37;1.50;0.50;0.00
75960;PMS7003;64644;48.914;2.254;2024-02-26T03:23:02;2.00;1.00;0.00
75960;PMS7003;64644;48.914;2.254;2024-02-26T03:25:28;1.75;1.00;0.00
75960;PMS7003;64644;48.914;2.254;2024-02-26T03:27:53;2.00;0.00;0.00
75960;PMS7003;64644;48.914;2.254;2024-02-26T03:30:19;0.25;0.25;0.00
75960;PMS7003;64644;48.914;2.254;2024-02-26T03:32:44;0.00;0.00;0.00
75960;PMS7003;64644;48.914;2.254;2024-02-26T03:35:09;0.75;0.00;0.00
75960;PMS7003;64644;48.914;2.254;2024-02-26T03:37:35;5.00;1.00;0.25
75960;PMS7003;64644;48.914;2.254;2024-02-26T03:40:00;1.00;1.00;0.00
75960;PMS7003;64644;48.914;2.254;2024-02-26T03:42:26;1.00;1.00;0.00
75960;PMS7003;64644;48.914;2.254;2024-02-26T03:44:52;1.25;1.00;0.25
75960;PMS7003;64644;48.914;2.254;2024-02-26T03:47:17;2.25;0.25;0.00
75960;PMS7003;64644;48.914;2.254;2024-02-26T03:49:42;3.50;1.00;1.00
75960;PMS7003;64644;48.914;2.254;2024-02-26T03:52:08;2.50;2.00;0.00
75960;PMS7003;64644;48.914;2.254;2024-02-26T03:54:33;0.25;0.25;0.00
75960;PMS7003;64644;48.914;2.254;2024-02-26T03:56:58;3.50;0.00;0.00
75960;PMS7003;64644;48.914;2.254;2024-02-26T03:59:24;1.00;1.00;0.00
75960;PMS7003;64644;48.914;2.254;2024-02-26T04:01:50;0.25;0.25;0.00
75960;PMS7003;64644;48.914;2.254;2024-02-26T04:04:16;0.00;0.00;0.00
75960;PMS7003;64644;48.914;2.254;2024-02-26T04:06:45;0.00;0.00;0.00
75960;PMS7003;64644;48.914;2.254;2024-02-26T04:09:11;1.00;1.00;0.00
75960;PMS7003;64644;48.914;2.254;2024-02-26T04:11:38;0.25;0.00;0.00
75960;PMS7003;64644;48.914;2.254;2024-02-26T04:14:03;4.25;4.25;2.00
75960;PMS7003;64644;48.914;2.254;2024-02-26T04:16:30;0.75;0.75;0.50
75960;PMS7003;64644;48.914;2.254;2024-02-26T04:18:56;0.50;0.50;0.00
75960;PMS7003;64644;48.914;2.254;2024-02-26T04:21:21;0.25;0.25;0.00
75960;PMS7003;64644;48.914;2.254;2024-02-26T04:23:47;1.00;1.00;0.50
75960;PMS7003;64644;48.914;2.254;2024-02-26T04:26:14;2.00;1.00;0.00
75960;PMS7003;64644;48.914;2.254;2024-02-26T04:28:39;3.25;2.50;1.25
75960;PMS7003;64644;48.914;2.254;2024-02-26T04:31:04;2.00;2.00;0.75
75960;PMS7003;64644;48.914;2.254;2024-02-26T04:33:30;3.50;3.50;1.00
75960;PMS7003;64644;48.914;2.254;2024-02-26T04:35:55;1.75;1.75;0.50
75960;PMS7003;64644;48.914;2.254;2024-02-26T04:38:20;1.00;0.75;0.75
75960;PMS7003;64644;48.914;2.254;2024-02-26T04:40:47;3.75;1.75;1.75
75960;PMS7003;64644;48.914;2.254;2024-02-26T04:43:12;3.25;2.25;1.00
75960;PMS7003;64644;48.914;2.254;2024-02-26T04:45:38;2.00;2.00;1.00
75960;PMS7003;64644;48.914;2.254;2024-02-26T04:48:03;4.75;3.25;1.00
75960;PMS7003;64644;48.914;2.254;2024-02-26T04:50:29;3.75;3.75;1.25
75960;PMS7003;64644;48.914;2.254;2024-02-26T04:52:54;5.75;2.00;1.00
75960;PMS7003;64644;48.914;2.254;2024-02-26T04:55:19;4.50;4.50;1.00
75960;PMS7003;64644;48.914;2.254;2024-02-26T04:57:45;2.50;2.50;1.00
75960;PMS7003;64644;48.914;2.254;2024-02-26T05:00:10;2.00;2.00;1.00
75960;PMS7003;64644;48.914;2.254;2024-02-26T05:02:36;2.25;2.25;1.00
75960;PMS7003;64644;48.914;2.254;2024-02-26T05:05:04;6.25;2.25;1.25
75960;PMS7003;64644;48.914;2.254;2024-02-26T05:07:30;4.25;1.75;1.75
75960;PMS7003;64644;48.914;2.254;2024-02-26T05:09:56;3.00;3.00;2.00
75960;PMS7003;64644;48.914;2.254;2024-02-26T05:12:21;2.50;2.00;1.00
75960;PMS7003;64644;48.914;2.254;2024-02-26T05:14:47;4.75;2.00;1.00
75960;PMS7003;64644;48.914;2.254;2024-02-26T05:17:12;3.25;3.25;1.75
75960;PMS7003;64644;48.914;2.254;2024-02-26T05:19:37;5.50;1.25;0.50
75960;PMS7003;64644;48.914;2.254;2024-02-26T05:22:03;8.50;3.25;2.00
75960;PMS7003;64644;48.914;2.254;2024-02-26T05:24:28;5.75;4.50;2.00
75960;PMS7003;64644;48.914;2.254;2024-02-26T05:26:53;4.25;2.00;1.25
75960;PMS7003;64644;48.914;2.254;2024-02-26T05:29:20;3.75;3.75;2.00
75960;PMS7003;64644;48.914;2.254;2024-02-26T05:31:45;3.25;2.50;2.00
75960;PMS7003;64644;48.914;2.254;2024-02-26T05:34:11;4.50;4.00;3.50
75960;PMS7003;64644;48.914;2.254;2024-02-26T05:36:36;1.50;1.50;1.25
75960;PMS7003;64644;48.914;2.254;2024-02-26T05:39:01;5.00;3.50;2.00
75960;PMS7003;64644;48.914;2.254;2024-02-26T05:41:28;2.50;2.00;0.75
75960;PMS7003;64644;48.914;2.254;2024-02-26T05:43:54;2.00;2.00;1.50
75960;PMS7003;64644;48.914;2.254;2024-02-26T05:46:20;3.75;2.00;1.00
75960;PMS7003;64644;48.914;2.254;2024-02-26T05:48:51;2.00;2.00;1.00
75960;PMS7003;64644;48.914;2.254;2024-02-26T05:51:17;2.25;2.25;1.00
75960;PMS7003;64644;48.914;2.254;2024-02-26T05:53:43;4.00;2.25;1.00
75960;PMS7003;64644;48.914;2.254;2024-02-26T05:56:08;2.00;2.00;1.00
75960;PMS7003;64644;48.914;2.254;2024-02-26T05:58:34;3.25;3.25;1.25
75960;PMS7003;64644;48.914;2.254;2024-02-26T06:00:59;2.00;2.00;1.00
75960;PMS7003;64644;48.914;2.254;2024-02-26T06:03:25;1.75;1.75;1.00
75960;PMS7003;64644;48.914;2.254;2024-02-26T06:05:51;2.00;2.00;1.00
75960;PMS7003;64644;48.914;2.254;2024-02-26T06:08:16;2.00;2.00;1.00
75960;PMS7003;64644;48.914;2.254;2024-02-26T06:10:41;1.50;1.50;1.00
75960;PMS7003;64644;48.914;2.254;2024-02-26T06:13:07;5.25;3.25;1.00
75960;PMS7003;64644;48.914;2.254;2024-02-26T06:15:32;2.00;1.75;0.00
75960;PMS7003;64644;48.914;2.254;2024-02-26T06:17:57;1.25;1.00;0.75
75960;PMS7003;64644;48.914;2.254;2024-02-26T06:20:23;0.75;0.75;0.75
75960;PMS7003;64644;48.914;2.254;2024-02-26T06:22:48;5.00;2.00;1.00
75960;PMS7003;64644;48.914;2.254;2024-02-26T06:25:13;4.25;3.00;1.00
75960;PMS7003;64644;48.914;2.254;2024-02-26T06:27:39;2.00;2.00;1.00
75960;PMS7003;64644;48.914;2.254;2024-02-26T06:30:04;2.00;2.00;1.00
75960;PMS7003;64644;48.914;2.254;2024-02-26T06:32:30;4.00;3.00;1.00
75960;PMS7003;64644;48.914;2.254;2024-02-26T06:34:55;2.00;1.50;1.00
75960;PMS7003;64644;48.914;2.254;2024-02-26T06:37:21;0.25;0.25;0.00
75960;PMS7003;64644;48.914;2.254;2024-02-26T06:39:47;2.50;2.50;1.00
75960;PMS7003;64644;48.914;2.254;2024-02-26T06:42:12;1.00;1.00;1.00
75960;PMS7003;64644;48.914;2.254;2024-02-26T06:44:37;2.00;2.00;1.00
75960;PMS7003;64644;48.914;2.254;2024-02-26T06:47:03;2.00;2.00;1.00
75960;PMS7003;64644;48.914;2.254;2024-02-26T06:49:29;1.50;1.50;1.00
75960;PMS7003;64644;48.914;2.254;2024-02-26T06:51:54;2.00;2.00;1.25
75960;PMS7003;64644;48.914;2.254;2024-02-26T06:54:19;4.00;4.00;1.00
75960;PMS7003;64644;48.914;2.254;2024-02-26T06:56:45;6.00;6.00;2.75
75960;PMS7003;64644;48.914;2.254;2024-02-26T06:59:10;9.25;5.75;4.75
75960;PMS7003;64644;48.914;2.254;2024-02-26T07:01:36;8.00;6.00;4.00
75960;PMS7003;64644;48.914;2.254;2024-02-26T07:04:01;8.75;5.50;4.00
75960;PMS7003;64644;48.914;2.254;2024-02-26T07:06:27;6.00;6.00;4.00
75960;PMS7003;64644;48.914;2.254;2024-02-26T07:08:52;6.00;6.00;4.25
75960;PMS7003;64644;48.914;2.254;2024-02-26T07:11:18;8.25;5.00;4.00
75960;PMS7003;64644;48.914;2.254;2024-02-26T07:13:45;11.00;5.75;4.25
75960;PMS7003;64644;48.914;2.254;2024-02-26T07:16:10;5.00;5.00;4.00
75960;PMS7003;64644;48.914;2.254;2024-02-26T07:18:36;9.00;5.25;4.00
75960;PMS7003;64644;48.914;2.254;2024-02-26T07:21:02;4.00;2.00;1.75
75960;PMS7003;64644;48.914;2.254;2024-02-26T07:23:27;6.00;5.75;4.00
75960;PMS7003;64644;48.914;2.254;2024-02-26T07:25:53;6.75;5.25;4.00
75960;PMS7003;64644;48.914;2.254;2024-02-26T07:28:18;4.50;4.50;4.00
75960;PMS7003;64644;48.914;2.254;2024-02-26T07:30:44;7.25;5.75;3.25
75960;PMS7003;64644;48.914;2.254;2024-02-26T07:33:10;6.00;4.75;2.00
75960;PMS7003;64644;48.914;2.254;2024-02-26T07:35:35;4.75;4.75;3.00
75960;PMS7003;64644;48.914;2.254;2024-02-26T07:38:01;9.50;7.50;4.75
75960;PMS7003;64644;48.914;2.254;2024-02-26T07:40:27;4.75;4.25;2.00
75960;PMS7003;64644;48.914;2.254;2024-02-26T07:42:52;6.67;5.33;4.00
75960;PMS7003;64644;48.914;2.254;2024-02-26T07:45:17;4.50;4.50;2.00
75960;PMS7003;64644;48.914;2.254;2024-02-26T07:47:44;6.50;5.25;2.25
75960;PMS7003;64644;48.914;2.254;2024-02-26T07:50:11;8.75;8.50;5.50
75960;PMS7003;64644;48.914;2.254;2024-02-26T07:52:36;4.25;3.75;1.75
75960;PMS7003;64644;48.914;2.254;2024-02-26T07:55:02;5.75;4.25;3.25
75960;PMS7003;64644;48.914;2.254;2024-02-26T07:57:28;5.75;4.75;2.00
75960;PMS7003;64644;48.914;2.254;2024-02-26T07:59:53;6.00;6.00;4.00
75960;PMS7003;64644;48.914;2.254;2024-02-26T08:02:18;8.50;5.25;5.00
75960;PMS7003;64644;48.914;2.254;2024-02-26T08:04:44;8.25;7.00;4.50
75960;PMS7003;64644;48.914;2.254;2024-02-26T08:07:09;7.00;5.00;2.25
75960;PMS7003;64644;48.914;2.254;2024-02-26T08:09:34;6.00;5.00;2.00
75960;PMS7003;64644;48.914;2.254;2024-02-26T08:11:59;5.33;5.00;2.00
75960;PMS7003;64644;48.914;2.254;2024-02-26T08:14:25;8.00;4.75;2.75
75960;PMS7003;64644;48.914;2.254;2024-02-26T08:16:50;10.00;4.00;2.00
75960;PMS7003;64644;48.914;2.254;2024-02-26T08:19:15;6.00;5.50;1.50
75960;PMS7003;64644;48.914;2.254;2024-02-26T08:21:42;6.50;5.25;4.75
75960;PMS7003;64644;48.914;2.254;2024-02-26T08:24:08;5.00;5.00;3.00
75960;PMS7003;64644;48.914;2.254;2024-02-26T08:26:33;3.50;3.50;2.00
75960;PMS7003;64644;48.914;2.254;2024-02-26T08:28:58;8.00;6.50;3.75
75960;PMS7003;64644;48.914;2.254;2024-02-26T08:31:24;6.00;6.00;4.25
75960;PMS7003;64644;48.914;2.254;2024-02-26T08:33:49;9.50;4.75;2.00
75960;PMS7003;64644;48.914;2.254;2024-02-26T08:36:14;5.00;5.00;3.75
75960;PMS7003;64644;48.914;2.254;2024-02-26T08:38:40;6.67;6.00;3.33
75960;PMS7003;64644;48.914;2.254;2024-02-26T08:41:05;5.00;3.00;2.25
75960;PMS7003;64644;48.914;2.254;2024-02-26T08:43:30;7.50;5.00;3.00
75960;PMS7003;64644;48.914;2.254;2024-02-26T08:45:56;6.25;5.25;3.25
75960;PMS7003;64644;48.914;2.254;2024-02-26T08:48:22;8.50;4.75;3.25
75960;PMS7003;64644;48.914;2.254;2024-02-26T08:50:47;8.75;7.50;5.00
75960;PMS7003;64644;48.914;2.254;2024-02-26T08:53:13;3.75;3.75;2.75
75960;PMS7003;64644;48.914;2.254;2024-02-26T08:55:38;3.50;3.50;2.00
75960;PMS7003;64644;48.914;2.254;2024-02-26T08:58:03;7.00;5.67;3.00
75960;PMS7003;64644;48.914;2.254;2024-02-26T09:00:29;6.25;5.25;3.25
75960;PMS7003;64644;48.914;2.254;2024-02-26T09:02:54;7.33;6.00;3.00
75960;PMS7003;64644;48.914;2.254;2024-02-26T09:05:19;10.00;5.00;3.50
75960;PMS7003;64644;48.914;2.254;2024-02-26T09:07:45;11.33;7.00;5.33
75960;PMS7003;64644;48.914;2.254;2024-02-26T09:10:11;7.25;6.00;4.25
75960;PMS7003;64644;48.914;2.254;2024-02-26T09:12:37;9.00;6.25;5.00
75960;PMS7003;64644;48.914;2.254;2024-02-26T09:15:03;6.50;6.50;4.00
75960;PMS7003;64644;48.914;2.254;2024-02-26T09:17:28;9.00;6.75;3.25
75960;PMS7003;64644;48.914;2.254;2024-02-26T09:19:54;9.00;6.00;5.00
75960;PMS7003;64644;48.914;2.254;2024-02-26T09:22:19;6.75;6.00;5.00
75960;PMS7003;64644;48.914;2.254;2024-02-26T09:24:45;5.50;5.50;3.25
75960;PMS7003;64644;48.914;2.254;2024-02-26T09:27:10;8.75;6.75;4.75
75960;PMS7003;64644;48.914;2.254;2024-02-26T09:29:35;6.75;6.00;4.00
75960;PMS7003;64644;48.914;2.254;2024-02-26T09:32:01;8.75;7.75;5.00
75960;PMS7003;64644;48.914;2.254;2024-02-26T09:34:26;10.75;6.25;3.50
75960;PMS7003;64644;48.914;2.254;2024-02-26T09:36:52;6.50;5.50;4.75
75960;PMS7003;64644;48.914;2.254;2024-02-26T09:39:17;9.25;6.25;2.75
75960;PMS7003;64644;48.914;2.254;2024-02-26T09:41:46;3.25;3.25;2.00
75960;PMS7003;64644;48.914;2.254;2024-02-26T09:44:13;5.75;5.50;3.25
75960;PMS7003;64644;48.914;2.254;2024-02-26T09:46:43;4.25;2.50;2.00
75960;PMS7003;64644;48.914;2.254;2024-02-26T09:49:09;5.00;4.25;3.25
75960;PMS7003;64644;48.914;2.254;2024-02-26T09:51:37;3.00;3.00;2.50
75960;PMS7003;64644;48.914;2.254;2024-02-26T09:54:03;5.00;3.00;2.00
75960;PMS7003;64644;48.914;2.254;2024-02-26T09:56:28;2.50;2.50;2.00
75960;PMS7003;64644;48.914;2.254;2024-02-26T09:58:55;3.25;2.25;1.25
75960;PMS7003;64644;48.914;2.254;2024-02-26T10:01:22;8.00;5.00;3.25
75960;PMS7003;64644;48.914;2.254;2024-02-26T10:03:56;5.75;5.75;3.25
75960;PMS7003;64644;48.914;2.254;2024-02-26T10:06:23;2.00;2.00;2.00
75960;PMS7003;64644;48.914;2.254;2024-02-26T10:08:50;6.50;3.50;2.75
75960;PMS7003;64644;48.914;2.254;2024-02-26T10:11:16;3.25;3.25;2.00
75960;PMS7003;64644;48.914;2.254;2024-02-26T10:13:42;3.50;3.50;2.75
75960;PMS7003;64644;48.914;2.254;2024-02-26T10:16:07;4.75;1.75;1.00
75960;PMS7003;64644;48.914;2.254;2024-02-26T10:21:15;1.00;1.00;1.00
75960;PMS7003;64644;48.914;2.254;2024-02-26T10:23:42;3.00;3.00;2.00
75960;PMS7003;64644;48.914;2.254;2024-02-26T10:26:09;2.75;2.75;2.00
75960;PMS7003;64644;48.914;2.254;2024-02-26T10:28:36;2.75;2.75;1.00
75960;PMS7003;64644;48.914;2.254;2024-02-26T10:31:01;3.00;3.00;2.00
75960;PMS7003;64644;48.914;2.254;2024-02-26T10:33:27;2.00;2.00;1.00
75960;PMS7003;64644;48.914;2.254;2024-02-26T10:35:52;2.25;1.00;0.00
75960;PMS7003;64644;48.914;2.254;2024-02-26T10:38:19;2.75;1.00;1.00
75960;PMS7003;64644;48.914;2.254;2024-02-26T10:40:45;1.25;1.25;1.00
75960;PMS7003;64644;48.914;2.254;2024-02-26T10:43:11;2.50;1.00;1.00
75960;PMS7003;64644;48.914;2.254;2024-02-26T10:45:39;2.75;2.00;1.00
75960;PMS7003;64644;48.914;2.254;2024-02-26T10:48:09;1.50;0.75;0.50
75960;PMS7003;64644;48.914;2.254;2024-02-26T10:50:36;4.00;2.50;1.25
75960;PMS7003;64644;48.914;2.254;2024-02-26T10:53:02;2.00;2.00;1.00
75960;PMS7003;64644;48.914;2.254;2024-02-26T10:55:30;2.00;1.00;1.00
75960;PMS7003;64644;48.914;2.254;2024-02-26T10:57:58;6.00;5.25;4.00
75960;PMS7003;64644;48.914;2.254;2024-02-26T11:00:24;5.00;5.00;3.00
75960;PMS7003;64644;48.914;2.254;2024-02-26T11:02:49;2.50;2.50;2.25
75960;PMS7003;64644;48.914;2.254;2024-02-26T11:05:16;5.00;5.00;3.00
75960;PMS7003;64644;48.914;2.254;2024-02-26T11:07:42;12.00;5.75;3.00
75960;PMS7003;64644;48.914;2.254;2024-02-26T11:10:09;6.00;3.00;1.75
75960;PMS7003;64644;48.914;2.254;2024-02-26T11:12:36;0.00;0.00;0.00
75960;PMS7003;64644;48.914;2.254;2024-02-26T11:15:04;0.00;0.00;0.00
75960;PMS7003;64644;48.914;2.254;2024-02-26T11:17:30;0.00;0.00;0.00
75960;PMS7003;64644;48.914;2.254;2024-02-26T11:19:57;1.00;1.00;0.00
75960;PMS7003;64644;48.914;2.254;2024-02-26T11:22:25;0.75;0.00;0.00
75960;PMS7003;64644;48.914;2.254;2024-02-26T11:24:54;0.00;0.00;0.00
75960;PMS7003;64644;48.914;2.254;2024-02-26T11:27:23;0.00;0.00;0.00
75960;PMS7003;64644;48.914;2.254;2024-02-26T11:29:52;0.00;0.00;0.00
75960;PMS7003;64644;48.914;2.254;2024-02-26T11:32:18;0.75;0.00;0.00
75960;PMS7003;64644;48.914;2.254;2024-02-26T11:34:44;0.00;0.00;0.00
75960;PMS7003;64644;48.914;2.254;2024-02-26T11:37:18;0.00;0.00;0.00
75960;PMS7003;64644;48.914;2.254;2024-02-26T11:39:45;0.00;0.00;0.00
75960;PMS7003;64644;48.914;2.254;2024-02-26T11:42:15;0.50;0.50;0.00
75960;PMS7003;64644;48.914;2.254;2024-02-26T11:44:41;0.00;0.00;0.00
75960;PMS7003;64644;48.914;2.254;2024-02-26T11:47:09;0.00;0.00;0.00
75960;PMS7003;64644;48.914;2.254;2024-02-26T11:49:38;0.00;0.00;0.00
75960;PMS7003;64644;48.914;2.254;2024-02-26T11:52:05;0.00;0.00;0.00
75960;PMS7003;64644;48.914;2.254;2024-02-26T11:54:51;0.00;0.00;0.00
75960;PMS7003;64644;48.914;2.254;2024-02-26T11:57:28;0.00;0.00;0.00
75960;PMS7003;64644;48.914;2.254;2024-02-26T11:59:55;1.00;1.00;0.00
75960;PMS7003;64644;48.914;2.254;2024-02-26T12:02:43;1.00;1.00;0.00
75960;PMS7003;64644;48.914;2.254;2024-02-26T12:05:16;0.00;0.00;0.00
75960;PMS7003;64644;48.914;2.254;2024-02-26T12:07:55;0.00;0.00;0.00
75960;PMS7003;64644;48.914;2.254;2024-02-26T12:10:30;0.00;0.00;0.00
75960;PMS7003;64644;48.914;2.254;2024-02-26T12:13:13;0.00;0.00;0.00
75960;PMS7003;64644;48.914;2.254;2024-02-26T12:15:45;1.00;1.00;0.00
75960;PMS7003;64644;48.914;2.254;2024-02-26T12:18:19;1.00;1.00;0.00
75960;PMS7003;64644;48.914;2.254;2024-02-26T12:20:46;0.00;0.00;0.00
75960;PMS7003;64644;48.914;2.254;2024-02-26T12:23:15;0.25;0.25;0.25
75960;PMS7003;64644;48.914;2.254;2024-02-26T12:25:44;0.75;0.75;0.00
75960;PMS7003;64644;48.914;2.254;2024-02-26T12:28:09;0.00;0.00;0.00
75960;PMS7003;64644;48.914;2.254;2024-02-26T12:30:35;1.00;1.00;1.00
75960;PMS7003;64644;48.914;2.254;2024-02-26T12:33:00;0.00;0.00;0.00
75960;PMS7003;64644;48.914;2.254;2024-02-26T12:35:27;0.00;0.00;0.00
75960;PMS7003;64644;48.914;2.254;2024-02-26T12:37:53;0.00;0.00;0.00
75960;PMS7003;64644;48.914;2.254;2024-02-26T12:40:19;1.00;1.00;1.00
75960;PMS7003;64644;48.914;2.254;2024-02-26T12:42:45;0.75;0.75;0.00
75960;PMS7003;64644;48.914;2.254;2024-02-26T12:45:11;1.00;1.00;0.00
75960;PMS7003;64644;48.914;2.254;2024-02-26T12:50:09;0.75;0.75;0.00
75960;PMS7003;64644;48.914;2.254;2024-02-26T12:52:36;1.75;1.75;1.00
75960;PMS7003;64644;48.914;2.254;2024-02-26T12:55:04;0.00;0.00;0.00
75960;PMS7003;64644;48.914;2.254;2024-02-26T12:57:32;0.00;0.00;0.00
75960;PMS7003;64644;48.914;2.254;2024-02-26T12:59:59;0.00;0.00;0.00
75960;PMS7003;64644;48.914;2.254;2024-02-26T13:02:25;0.50;0.50;0.00
75960;PMS7003;64644;48.914;2.254;2024-02-26T13:04:52;1.25;1.00;1.00
75960;PMS7003;64644;48.914;2.254;2024-02-26T13:07:18;2.00;0.50;0.00
75960;PMS7003;64644;48.914;2.254;2024-02-26T13:09:44;1.00;1.00;1.00
75960;PMS7003;64644;48.914;2.254;2024-02-26T13:12:09;1.00;0.50;0.50
75960;PMS7003;64644;48.914;2.254;2024-02-26T13:14:35;1.25;1.25;1.00
75960;PMS7003;64644;48.914;2.254;2024-02-26T13:17:01;0.75;0.00;0.00
75960;PMS7003;64644;48.914;2.254;2024-02-26T13:19:27;2.00;1.00;0.75
75960;PMS7003;64644;48.914;2.254;2024-02-26T13:21:55;1.50;1.50;1.00
75960;PMS7003;64644;48.914;2.254;2024-02-26T13:24:21;1.00;1.00;1.00
75960;PMS7003;64644;48.914;2.254;2024-02-26T13:26:47;0.25;0.25;0.00
75960;PMS7003;64644;48.914;2.254;2024-02-26T13:29:18;1.50;1.50;1.00
75960;PMS7003;64644;48.914;2.254;2024-02-26T13:31:44;1.00;1.00;0.25
75960;PMS7003;64644;48.914;2.254;2024-02-26T13:34:09;2.00;2.00;1.00
75960;PMS7003;64644;48.914;2.254;2024-02-26T13:36:35;2.00;2.00;1.75
75960;PMS7003;64644;48.914;2.254;2024-02-26T13:39:00;1.00;1.00;1.00
75960;PMS7003;64644;48.914;2.254;2024-02-26T13:41:26;1.25;1.25;1.00
75960;PMS7003;64644;48.914;2.254;2024-02-26T13:43:52;1.75;1.75;1.00
75960;PMS7003;64644;48.914;2.254;2024-02-26T13:46:17;1.00;1.00;1.00
75960;PMS7003;64644;48.914;2.254;2024-02-26T13:48:43;1.00;1.00;1.00
75960;PMS7003;64644;48.914;2.254;2024-02-26T13:51:09;1.00;1.00;1.00
75960;PMS7003;64644;48.914;2.254;2024-02-26T13:53:35;1.00;1.00;1.00
75960;PMS7003;64644;48.914;2.254;2024-02-26T13:56:00;1.00;1.00;1.00
75960;PMS7003;64644;48.914;2.254;2024-02-26T13:58:26;1.00;1.00;0.50
75960;PMS7003;64644;48.914;2.254;2024-02-26T14:00:52;0.75;0.75;0.50
75960;PMS7003;64644;48.914;2.254;2024-02-26T14:03:18;0.00;0.00;0.00
75960;PMS7003;64644;48.914;2.254;2024-02-26T14:05:44;1.50;1.50;1.00
75960;PMS7003;64644;48.914;2.254;2024-02-26T14:08:10;0.25;0.25;0.00
75960;PMS7003;64644;48.914;2.254;2024-02-26T14:10:35;0.00;0.00;0.00
75960;PMS7003;64644;48.914;2.254;2024-02-26T14:13:01;1.00;1.00;0.00
75960;PMS7003;64644;48.914;2.254;2024-02-26T14:15:27;2.00;0.00;0.00
75960;PMS7003;64644;48.914;2.254;2024-02-26T14:17:53;1.00;1.00;0.75
75960;PMS7003;64644;48.914;2.254;2024-02-26T14:20:22;1.00;1.00;1.00